createdAt,value
2023-04-03T00:00:03.726Z,5.06
2023-04-03T00:01:03.713Z,4.96
2023-04-03T00:02:03.757Z,5.06
2023-04-03T00:03:03.788Z,5.01
2023-04-03T00:04:03.739Z,4.97
2023-04-03T00:05:03.785Z,4.91
2023-04-03T00:06:03.670Z,4.91
2023-04-03T00:07:03.715Z,4.88
2023-04-03T00:08:03.696Z,4.80
2023-04-03T00:09:03.686Z,4.75
2023-04-03T00:10:03.664Z,4.71
2023-04-03T00:11:03.658Z,4.80
2023-04-03T00:12:03.641Z,4.75
2023-04-03T00:13:03.660Z,4.83
2023-04-03T00:14:03.648Z,4.75
2023-04-03T00:15:03.655Z,4.61
2023-04-03T00:16:03.639Z,4.67
2023-04-03T00:17:03.708Z,4.71
2023-04-03T00:18:03.702Z,4.74
2023-04-03T00:19:03.586Z,4.65
2023-04-03T00:20:03.589Z,4.62
2023-04-03T00:21:03.591Z,4.51
2023-04-03T00:22:03.583Z,4.38
2023-04-03T00:23:03.610Z,4.39
2023-04-03T00:24:03.618Z,4.35
2023-04-03T00:25:03.557Z,4.39
2023-04-03T00:26:03.598Z,4.35
2023-04-03T00:27:03.553Z,4.29
2023-04-03T00:28:03.572Z,4.18
2023-04-03T00:29:03.569Z,4.21
2023-04-03T00:30:03.544Z,4.28
2023-04-03T00:31:03.558Z,4.25
2023-04-03T00:32:03.541Z,4.21
2023-04-03T00:33:03.523Z,4.20
2023-04-03T00:34:03.536Z,4.16
2023-04-03T00:35:03.501Z,4.02
2023-04-03T00:36:03.539Z,4.10
2023-04-03T00:37:03.576Z,4.17
2023-04-03T00:38:03.498Z,4.07
2023-04-03T00:39:03.547Z,4.10
2023-04-03T00:40:03.469Z,4.00
2023-04-03T00:41:03.465Z,4.02
2023-04-03T00:42:03.485Z,4.00
2023-04-03T00:43:03.467Z,4.02
2023-04-03T00:44:03.440Z,4.10
2023-04-03T00:45:03.459Z,3.92
2023-04-03T00:46:03.474Z,3.96
2023-04-03T00:47:03.429Z,3.92
2023-04-03T00:48:03.495Z,3.99
2023-04-03T00:49:03.403Z,3.93
2023-04-03T00:50:03.397Z,3.89
2023-04-03T00:51:03.495Z,3.92
2023-04-03T00:52:03.396Z,4.06
2023-04-03T00:53:03.402Z,3.98
2023-04-03T00:54:03.389Z,4.04
2023-04-03T00:55:03.362Z,3.88
2023-04-03T00:56:03.372Z,3.92
2023-04-03T00:57:03.375Z,3.88
2023-04-03T00:58:03.346Z,3.89
2023-04-03T00:59:03.333Z,3.72
2023-04-03T01:00:03.333Z,3.78
2023-04-03T01:01:03.589Z,3.71
2023-04-03T01:02:03.367Z,3.81
2023-04-03T01:03:03.367Z,3.77
2023-04-03T01:04:03.315Z,3.74
2023-04-03T01:05:03.315Z,3.59
2023-04-03T01:06:03.348Z,3.56
2023-04-03T01:07:03.336Z,3.64
2023-04-03T01:08:03.298Z,3.71
2023-04-03T01:09:03.278Z,3.57
2023-04-03T01:10:03.298Z,3.45
2023-04-03T01:11:04.255Z,3.52
2023-04-03T01:12:03.254Z,3.56
2023-04-03T01:13:03.276Z,3.45
2023-04-03T01:14:03.243Z,3.45
2023-04-03T01:15:03.270Z,3.53
2023-04-03T01:16:03.316Z,3.49
2023-04-03T01:17:03.215Z,3.42
2023-04-03T01:18:03.311Z,3.41
2023-04-03T01:19:04.245Z,3.42
2023-04-03T01:20:03.216Z,3.44
2023-04-03T01:21:03.192Z,3.30
2023-04-03T01:22:03.792Z,3.31
2023-04-03T01:23:03.226Z,3.20
2023-04-03T01:24:03.220Z,3.30
2023-04-03T01:25:03.182Z,3.15
2023-04-03T01:26:03.196Z,3.17
2023-04-03T01:27:03.160Z,3.20
2023-04-03T01:28:03.181Z,3.17
2023-04-03T01:29:03.153Z,2.98
2023-04-03T01:30:03.161Z,2.90
2023-04-03T01:31:03.316Z,2.90
2023-04-03T01:32:03.149Z,2.87
2023-04-03T01:33:03.167Z,2.90
2023-04-03T01:34:03.134Z,2.94
2023-04-03T01:35:03.107Z,2.83
2023-04-03T01:36:03.129Z,2.90
2023-04-03T01:37:03.102Z,2.94
2023-04-03T01:38:03.101Z,2.84
2023-04-03T01:39:03.101Z,2.86
2023-04-03T01:40:03.106Z,2.95
2023-04-03T01:41:03.061Z,3.08
2023-04-03T01:42:03.066Z,2.95
2023-04-03T01:43:03.102Z,2.95
2023-04-03T01:44:03.098Z,2.92
2023-04-03T01:45:03.030Z,2.92
2023-04-03T01:46:03.103Z,2.86
2023-04-03T01:47:03.043Z,2.94
2023-04-03T01:48:03.061Z,2.89
2023-04-03T01:49:03.089Z,2.98
2023-04-03T01:50:03.010Z,2.79
2023-04-03T01:51:03.015Z,2.92
2023-04-03T01:52:02.989Z,3.01
2023-04-03T01:53:02.996Z,2.95
2023-04-03T01:54:03.022Z,2.94
2023-04-03T01:55:02.977Z,3.02
2023-04-03T01:56:03.017Z,2.97
2023-04-03T01:57:03.014Z,2.76
2023-04-03T01:58:02.964Z,2.77
2023-04-03T01:59:02.977Z,2.66
2023-04-03T02:00:02.984Z,2.61
2023-04-03T02:01:02.957Z,2.55
2023-04-03T02:02:02.940Z,2.62
2023-04-03T02:03:02.949Z,2.74
2023-04-03T02:04:02.984Z,2.51
2023-04-03T02:05:02.947Z,2.58
2023-04-03T02:06:02.895Z,2.56
2023-04-03T02:07:02.919Z,2.61
2023-04-03T02:08:02.898Z,2.58
2023-04-03T02:09:02.905Z,2.69
2023-04-03T02:10:02.934Z,2.61
2023-04-03T02:11:02.897Z,2.63
2023-04-03T02:12:02.901Z,2.55
2023-04-03T02:13:02.856Z,2.37
2023-04-03T02:14:02.849Z,2.27
2023-04-03T02:15:02.888Z,2.37
2023-04-03T02:16:02.871Z,2.37
2023-04-03T02:17:02.996Z,2.37
2023-04-03T02:18:02.858Z,2.58
2023-04-03T02:19:03.820Z,2.41
2023-04-03T02:20:02.822Z,2.44
2023-04-03T02:21:02.793Z,2.19
2023-04-03T02:22:02.826Z,2.29
2023-04-03T02:23:02.796Z,2.29
2023-04-03T02:24:02.768Z,2.37
2023-04-03T02:25:02.801Z,2.36
2023-04-03T02:26:02.755Z,2.33
2023-04-03T02:27:02.796Z,2.20
2023-04-03T02:28:02.771Z,2.23
2023-04-03T02:29:02.726Z,2.36
2023-04-03T02:30:02.755Z,2.40
2023-04-03T02:31:02.777Z,2.26
2023-04-03T02:32:02.762Z,2.27
2023-04-03T02:33:02.716Z,2.37
2023-04-03T02:34:02.711Z,2.27
2023-04-03T02:35:02.749Z,2.38
2023-04-03T02:36:02.820Z,2.30
2023-04-03T02:37:02.765Z,2.33
2023-04-03T02:38:02.681Z,2.38
2023-04-03T02:39:02.673Z,2.37
2023-04-03T02:40:02.714Z,2.25
2023-04-03T02:41:02.664Z,2.30
2023-04-03T02:42:02.667Z,2.36
2023-04-03T02:43:02.678Z,2.26
2023-04-03T02:44:02.632Z,2.27
2023-04-03T02:45:02.667Z,2.14
2023-04-03T02:46:02.641Z,2.11
2023-04-03T02:47:02.643Z,2.20
2023-04-03T02:48:02.707Z,2.32
2023-04-03T02:49:02.604Z,2.22
2023-04-03T02:50:02.618Z,2.30
2023-04-03T02:51:02.599Z,2.22
2023-04-03T02:52:02.584Z,2.08
2023-04-03T02:53:02.573Z,2.08
2023-04-03T02:54:02.621Z,1.98
2023-04-03T02:55:02.590Z,1.88
2023-04-03T02:56:02.560Z,1.95
2023-04-03T02:57:02.585Z,1.83
2023-04-03T02:58:02.582Z,1.85
2023-04-03T02:59:02.576Z,1.93
2023-04-03T03:00:02.525Z,1.82
2023-04-03T03:01:02.538Z,1.83
2023-04-03T03:02:02.564Z,1.82
2023-04-03T03:03:02.590Z,1.86
2023-04-03T03:04:02.542Z,1.95
2023-04-03T03:05:02.548Z,1.98
2023-04-03T03:06:02.544Z,1.85
2023-04-03T03:07:02.494Z,1.89
2023-04-03T03:08:02.485Z,1.95
2023-04-03T03:09:02.527Z,2.02
2023-04-03T03:10:02.533Z,1.92
2023-04-03T03:11:02.475Z,2.00
2023-04-03T03:12:02.488Z,1.81
2023-04-03T03:13:02.452Z,1.83
2023-04-03T03:14:02.461Z,1.75
2023-04-03T03:15:02.475Z,1.77
2023-04-03T03:16:02.463Z,1.81
2023-04-03T03:17:02.425Z,1.67
2023-04-03T03:18:02.497Z,1.75
2023-04-03T03:19:02.424Z,1.70
2023-04-03T03:20:02.420Z,1.75
2023-04-03T03:21:02.445Z,1.67
2023-04-03T03:22:02.395Z,1.82
2023-04-03T03:23:02.418Z,1.71
2023-04-03T03:24:02.399Z,1.64
2023-04-03T03:25:02.403Z,1.65
2023-04-03T03:26:02.422Z,1.68
2023-04-03T03:27:02.415Z,1.70
2023-04-03T03:28:02.350Z,1.60
2023-04-03T03:29:02.375Z,1.50
2023-04-03T03:30:02.350Z,1.53
2023-04-03T03:31:02.417Z,1.65
2023-04-03T03:32:02.388Z,1.70
2023-04-03T03:33:02.400Z,1.72
2023-04-03T03:34:02.318Z,1.89
2023-04-03T03:35:02.334Z,1.81
2023-04-03T03:36:02.371Z,1.85
2023-04-03T03:37:02.330Z,1.93
2023-04-03T03:38:02.330Z,1.71
2023-04-03T03:39:02.316Z,1.71
2023-04-03T03:40:02.264Z,1.77
2023-04-03T03:41:02.294Z,1.72
2023-04-03T03:42:02.263Z,1.81
2023-04-03T03:43:02.255Z,1.67
2023-04-03T03:44:02.309Z,1.72
2023-04-03T03:45:02.240Z,1.65
2023-04-03T03:46:02.257Z,1.77
2023-04-03T03:47:02.236Z,1.89
2023-04-03T03:48:02.245Z,1.82
2023-04-03T03:49:02.224Z,1.79
2023-04-03T03:50:02.243Z,1.86
2023-04-03T03:51:02.215Z,1.57
2023-04-03T03:52:02.188Z,1.68
2023-04-03T03:53:02.187Z,1.67
2023-04-03T03:54:02.180Z,1.75
2023-04-03T03:55:02.210Z,1.67
2023-04-03T03:56:02.194Z,1.70
2023-04-03T03:57:02.214Z,1.72
2023-04-03T03:58:02.174Z,1.71
2023-04-03T03:59:02.148Z,1.61
2023-04-03T04:00:02.185Z,1.56
2023-04-03T04:01:02.153Z,1.68
2023-04-03T04:02:02.213Z,1.57
2023-04-03T04:03:02.247Z,1.44
2023-04-03T04:04:02.221Z,1.43
2023-04-03T04:05:02.155Z,1.52
2023-04-03T04:06:02.151Z,1.57
2023-04-03T04:07:02.115Z,1.46
2023-04-03T04:08:02.102Z,1.52
2023-04-03T04:09:02.115Z,1.49
2023-04-03T04:10:02.083Z,1.65
2023-04-03T04:11:02.137Z,1.53
2023-04-03T04:12:02.104Z,1.61
2023-04-03T04:13:02.069Z,1.63
2023-04-03T04:14:02.082Z,1.50
2023-04-03T04:15:02.042Z,1.44
2023-04-03T04:16:02.070Z,1.54
2023-04-03T04:17:02.169Z,1.35
2023-04-03T04:18:02.136Z,1.26
2023-04-03T04:19:02.031Z,1.28
2023-04-03T04:20:02.083Z,1.31
2023-04-03T04:21:02.036Z,1.31
2023-04-03T04:22:02.017Z,1.26
2023-04-03T04:23:02.052Z,1.24
2023-04-03T04:24:02.030Z,1.14
2023-04-03T04:25:01.988Z,1.13
2023-04-03T04:26:02.026Z,1.17
2023-04-03T04:27:01.983Z,1.17
2023-04-03T04:28:02.026Z,1.10
2023-04-03T04:29:01.973Z,1.08
2023-04-03T04:30:01.973Z,1.13
2023-04-03T04:31:01.980Z,1.02
2023-04-03T04:32:01.986Z,1.08
2023-04-03T04:33:02.030Z,1.06
2023-04-03T04:34:01.986Z,1.17
2023-04-03T04:35:01.983Z,1.16
2023-04-03T04:36:01.967Z,1.07
2023-04-03T04:37:02.010Z,1.06
2023-04-03T04:38:01.946Z,1.21
2023-04-03T04:39:01.962Z,1.14
2023-04-03T04:40:01.904Z,1.17
2023-04-03T04:41:01.893Z,1.11
2023-04-03T04:42:01.901Z,1.11
2023-04-03T04:43:01.931Z,1.14
2023-04-03T04:44:01.930Z,1.00
2023-04-03T04:45:01.893Z,1.06
2023-04-03T04:46:01.905Z,1.07
2023-04-03T04:47:01.847Z,1.10
2023-04-03T04:48:01.944Z,1.17
2023-04-03T04:49:01.922Z,1.18
2023-04-03T04:50:01.844Z,1.16
2023-04-03T04:51:01.830Z,1.28
2023-04-03T04:52:01.853Z,1.16
2023-04-03T04:53:01.858Z,1.11
2023-04-03T04:54:01.877Z,1.11
2023-04-03T04:55:01.809Z,1.00
2023-04-03T04:56:01.833Z,0.99
2023-04-03T04:57:01.832Z,0.98
2023-04-03T04:58:01.780Z,1.06
2023-04-03T04:59:01.790Z,1.13
2023-04-03T05:00:01.820Z,1.14
2023-04-03T05:01:01.778Z,1.07
2023-04-03T05:02:01.942Z,1.10
2023-04-03T05:03:01.849Z,1.11
2023-04-03T05:04:01.781Z,0.99
2023-04-03T05:05:04.411Z,0.98
2023-04-03T05:06:01.761Z,1.08
2023-04-03T05:07:01.750Z,1.18
2023-04-03T05:08:01.734Z,0.99
2023-04-03T05:09:01.747Z,0.71
2023-04-03T05:10:01.836Z,0.96
2023-04-03T05:11:01.739Z,0.96
2023-04-03T05:12:01.894Z,0.92
2023-04-03T05:13:01.723Z,0.90
2023-04-03T05:14:01.697Z,0.92
2023-04-03T05:15:01.733Z,0.89
2023-04-03T05:16:01.715Z,0.98
2023-04-03T05:17:01.688Z,0.93
2023-04-03T05:18:01.724Z,1.00
2023-04-03T05:19:01.716Z,0.84
2023-04-03T05:20:02.330Z,0.86
2023-04-03T05:21:01.693Z,0.88
2023-04-03T05:22:01.658Z,0.74
2023-04-03T05:23:01.645Z,0.84
2023-04-03T05:24:02.664Z,0.78
2023-04-03T05:25:01.667Z,0.84
2023-04-03T05:26:01.628Z,0.81
2023-04-03T05:27:01.642Z,0.63
2023-04-03T05:28:01.632Z,0.64
2023-04-03T05:29:01.631Z,0.59
2023-04-03T05:30:01.639Z,0.74
2023-04-03T05:31:01.652Z,0.82
2023-04-03T05:32:01.671Z,0.81
2023-04-03T05:33:01.658Z,0.84
2023-04-03T05:34:01.595Z,0.82
2023-04-03T05:35:01.648Z,0.86
2023-04-03T05:36:01.644Z,0.78
2023-04-03T05:37:01.577Z,0.81
2023-04-03T05:38:01.556Z,0.78
2023-04-03T05:39:01.587Z,0.77
2023-04-03T05:40:01.559Z,0.78
2023-04-03T05:41:01.546Z,0.89
2023-04-03T05:42:01.561Z,0.82
2023-04-03T05:43:01.537Z,0.95
2023-04-03T05:44:01.520Z,0.90
2023-04-03T05:45:01.506Z,0.96
2023-04-03T05:46:01.594Z,1.06
2023-04-03T05:47:01.514Z,1.02
2023-04-03T05:48:01.563Z,1.18
2023-04-03T05:49:01.544Z,1.20
2023-04-03T05:50:01.471Z,1.10
2023-04-03T05:51:01.489Z,1.24
2023-04-03T05:52:01.457Z,1.16
2023-04-03T05:53:01.502Z,1.10
2023-04-03T05:54:01.605Z,1.08
2023-04-03T05:55:01.463Z,0.93
2023-04-03T05:56:01.503Z,1.10
2023-04-03T05:57:01.439Z,0.86
2023-04-03T05:58:01.582Z,1.10
2023-04-03T05:59:01.424Z,1.10
2023-04-03T06:00:01.421Z,1.17
2023-04-03T06:01:01.555Z,1.32
2023-04-03T06:02:01.375Z,1.29
2023-04-03T06:03:01.472Z,1.28
2023-04-03T06:04:01.509Z,1.31
2023-04-03T06:05:01.461Z,1.35
2023-04-03T06:06:01.398Z,1.43
2023-04-03T06:07:01.383Z,1.53
2023-04-03T06:08:01.364Z,1.54
2023-04-03T06:09:03.739Z,1.38
2023-04-03T06:10:01.380Z,1.31
2023-04-03T06:11:01.351Z,1.32
2023-04-03T06:12:01.352Z,1.25
2023-04-03T06:13:01.313Z,1.16
2023-04-03T06:14:01.336Z,1.13
2023-04-03T06:15:01.342Z,1.04
2023-04-03T06:16:01.348Z,1.17
2023-04-03T06:17:01.375Z,1.04
2023-04-03T06:18:01.368Z,1.16
2023-04-03T06:19:02.274Z,1.14
2023-04-03T06:20:01.340Z,1.26
2023-04-03T06:21:01.317Z,1.28
2023-04-03T06:22:01.272Z,1.35
2023-04-03T06:23:01.307Z,1.32
2023-04-03T06:24:01.438Z,1.36
2023-04-03T06:25:01.274Z,1.56
2023-04-03T06:26:01.236Z,1.67
2023-04-03T06:27:01.270Z,1.68
2023-04-03T06:28:01.235Z,1.60
2023-04-03T06:29:01.259Z,1.71
2023-04-03T06:30:01.254Z,1.60
2023-04-03T06:31:01.271Z,1.44
2023-04-03T06:32:01.194Z,1.38
2023-04-03T06:33:01.230Z,1.38
2023-04-03T06:34:01.190Z,1.43
2023-04-03T06:35:01.236Z,1.43
2023-04-03T06:36:01.211Z,1.50
2023-04-03T06:37:01.214Z,1.70
2023-04-03T06:38:01.155Z,1.42
2023-04-03T06:39:01.241Z,1.43
2023-04-03T06:40:01.354Z,1.63
2023-04-03T06:41:01.156Z,1.75
2023-04-03T06:42:01.178Z,1.77
2023-04-03T06:43:01.136Z,1.82
2023-04-03T06:44:01.128Z,1.82
2023-04-03T06:45:01.121Z,1.88
2023-04-03T06:46:01.230Z,1.98
2023-04-03T06:47:01.167Z,1.90
2023-04-03T06:48:01.175Z,1.98
2023-04-03T06:49:01.082Z,2.11
2023-04-03T06:50:01.138Z,2.22
2023-04-03T06:51:01.097Z,2.41
2023-04-03T06:52:02.557Z,2.63
2023-04-03T06:53:02.061Z,2.63
2023-04-03T06:54:01.061Z,2.74
2023-04-03T06:55:01.040Z,2.95
2023-04-03T06:56:02.102Z,2.62
2023-04-03T06:57:01.126Z,2.80
2023-04-03T06:58:01.091Z,2.71
2023-04-03T06:59:01.052Z,2.68
2023-04-03T07:00:01.032Z,2.90
2023-04-03T07:01:01.027Z,2.92
2023-04-03T07:02:01.085Z,2.97
2023-04-03T07:03:01.048Z,2.68
2023-04-03T07:04:00.995Z,2.89
2023-04-03T07:05:00.970Z,3.15
2023-04-03T07:06:00.981Z,2.90
2023-04-03T07:07:01.157Z,2.99
2023-04-03T07:08:00.994Z,2.83
2023-04-03T07:09:00.985Z,2.87
2023-04-03T07:10:00.954Z,2.89
2023-04-03T07:11:00.958Z,2.55
2023-04-03T07:12:01.086Z,2.11
2023-04-03T07:13:01.161Z,2.08
2023-04-03T07:14:00.983Z,2.30
2023-04-03T07:15:00.922Z,2.12
2023-04-03T07:16:00.971Z,2.04
2023-04-03T07:17:00.953Z,2.05
2023-04-03T07:18:00.913Z,2.09
2023-04-03T07:19:00.902Z,2.11
2023-04-03T07:20:01.928Z,2.19
2023-04-03T07:21:01.288Z,2.41
2023-04-03T07:22:00.935Z,2.25
2023-04-03T07:23:02.159Z,2.36
2023-04-03T07:24:00.889Z,2.25
2023-04-03T07:25:00.851Z,2.37
2023-04-03T07:26:00.943Z,2.40
2023-04-03T07:27:00.840Z,2.32
2023-04-03T07:28:00.892Z,2.18
2023-04-03T07:29:00.907Z,2.08
2023-04-03T07:30:00.831Z,2.15
2023-04-03T07:31:00.846Z,2.23
2023-04-03T07:32:00.939Z,2.30
2023-04-03T07:33:00.873Z,2.25
2023-04-03T07:34:00.853Z,2.29
2023-04-03T07:35:02.371Z,2.55
2023-04-03T07:36:00.802Z,2.43
2023-04-03T07:37:00.798Z,2.33
2023-04-03T07:38:00.767Z,2.51
2023-04-03T07:39:00.805Z,2.66
2023-04-03T07:40:00.777Z,2.45
2023-04-03T07:41:00.758Z,2.41
2023-04-03T07:42:00.772Z,2.27
2023-04-03T07:43:00.727Z,2.47
2023-04-03T07:44:00.737Z,2.59
2023-04-03T07:45:00.753Z,2.41
2023-04-03T07:46:00.714Z,2.37
2023-04-03T07:47:00.704Z,2.45
2023-04-03T07:48:00.712Z,2.66
2023-04-03T07:49:00.694Z,2.94
2023-04-03T07:50:00.725Z,2.83
2023-04-03T07:51:00.714Z,2.83
2023-04-03T07:52:00.661Z,2.80
2023-04-03T07:53:00.673Z,2.76
2023-04-03T07:54:00.643Z,2.68
2023-04-03T07:55:00.716Z,2.71
2023-04-03T07:56:00.762Z,2.36
2023-04-03T07:57:00.687Z,2.63
2023-04-03T07:58:00.611Z,2.99
2023-04-03T07:59:00.752Z,2.83
2023-04-03T08:00:00.652Z,3.39
2023-04-03T08:01:00.599Z,3.57
2023-04-03T08:02:00.626Z,3.78
2023-04-03T08:03:00.769Z,4.02
2023-04-03T08:04:00.723Z,4.18
2023-04-03T08:05:00.718Z,4.39
2023-04-03T08:06:00.647Z,4.44
2023-04-03T08:07:00.572Z,4.21
2023-04-03T08:08:00.585Z,4.32
2023-04-03T08:09:00.601Z,4.31
2023-04-03T08:10:00.542Z,4.00
2023-04-03T08:11:00.625Z,4.08
2023-04-03T08:12:00.553Z,3.77
2023-04-03T08:13:00.579Z,3.89
2023-04-03T08:14:00.556Z,4.08
2023-04-03T08:15:00.510Z,3.53
2023-04-03T08:16:00.557Z,3.56
2023-04-03T08:17:00.570Z,4.10
2023-04-03T08:18:00.564Z,4.65
2023-04-03T08:19:00.489Z,4.80
2023-04-03T08:20:00.475Z,5.15
2023-04-03T08:21:00.521Z,4.69
2023-04-03T08:22:00.465Z,4.47
2023-04-03T08:23:00.500Z,3.64
2023-04-03T08:24:00.460Z,3.74
2023-04-03T08:25:00.492Z,3.50
2023-04-03T08:26:00.487Z,3.64
2023-04-03T08:27:00.440Z,3.93
2023-04-03T08:28:00.517Z,3.74
2023-04-03T08:29:00.463Z,3.60
2023-04-03T08:30:00.421Z,3.46
2023-04-03T08:31:00.482Z,3.60
2023-04-03T08:32:00.449Z,3.53
2023-04-03T08:33:00.424Z,3.50
2023-04-03T08:34:00.451Z,3.46
2023-04-03T08:35:00.406Z,3.39
2023-04-03T08:36:00.447Z,3.42
2023-04-03T08:37:00.386Z,3.34
2023-04-03T08:38:00.393Z,3.16
2023-04-03T08:39:00.403Z,3.23
2023-04-03T08:40:00.374Z,3.45
2023-04-03T08:41:00.378Z,3.44
2023-04-03T08:42:00.416Z,3.12
2023-04-03T08:43:00.346Z,3.17
2023-04-03T08:44:00.381Z,3.57
2023-04-03T08:45:00.320Z,4.02
2023-04-03T08:46:00.423Z,4.31
2023-04-03T08:47:00.355Z,4.25
2023-04-03T08:48:00.412Z,4.16
2023-04-03T08:49:00.420Z,4.08
2023-04-03T08:50:00.333Z,3.63
2023-04-03T08:51:03.237Z,3.30
2023-04-03T08:52:01.274Z,3.90
2023-04-03T08:53:00.287Z,4.16
2023-04-03T08:54:00.272Z,4.06
2023-04-03T08:55:00.310Z,4.44
2023-04-03T08:56:00.272Z,4.68
2023-04-03T08:57:00.316Z,3.77
2023-04-03T08:58:00.310Z,3.78
2023-04-03T08:59:00.350Z,3.57
2023-04-03T09:00:00.269Z,3.68
2023-04-03T09:01:00.252Z,3.77
2023-04-03T09:02:00.237Z,3.60
2023-04-03T09:03:00.420Z,3.35
2023-04-03T09:04:00.259Z,3.80
2023-04-03T09:05:00.275Z,3.88
2023-04-03T09:06:00.189Z,4.02
2023-04-03T09:07:00.169Z,3.80
2023-04-03T09:08:00.209Z,3.99
2023-04-03T09:09:00.178Z,4.06
2023-04-03T09:10:00.208Z,4.20
2023-04-03T09:11:00.156Z,4.16
2023-04-03T09:12:00.166Z,4.11
2023-04-03T09:13:00.144Z,3.68
2023-04-03T09:14:00.199Z,4.06
2023-04-03T09:15:00.196Z,4.35
2023-04-03T09:16:00.202Z,4.74
2023-04-03T09:17:00.139Z,4.46
2023-04-03T09:18:00.159Z,4.74
2023-04-03T09:19:00.125Z,5.06
2023-04-03T09:20:00.109Z,5.20
2023-04-03T09:21:00.178Z,5.09
2023-04-03T09:22:00.107Z,4.64
2023-04-03T09:23:00.124Z,4.83
2023-04-03T09:24:00.079Z,5.11
2023-04-03T09:25:00.150Z,5.05
2023-04-03T09:26:00.045Z,5.27
2023-04-03T09:27:00.194Z,5.65
2023-04-03T09:28:00.098Z,5.11
2023-04-03T09:29:00.046Z,5.58
2023-04-03T09:30:00.184Z,5.96
2023-04-03T09:31:00.189Z,5.73
2023-04-03T09:32:00.014Z,5.77
2023-04-03T09:33:00.073Z,5.77
2023-04-03T09:33:59.988Z,5.65
2023-04-03T09:35:03.806Z,5.83
2023-04-03T09:36:01.016Z,5.87
2023-04-03T09:37:00.054Z,5.66
2023-04-03T09:38:00.051Z,5.37
2023-04-03T09:39:00.022Z,5.30
2023-04-03T09:40:00.008Z,5.63
2023-04-03T09:40:59.966Z,5.56
2023-04-03T09:41:59.968Z,5.48
2023-04-03T09:43:01.687Z,5.08
2023-04-03T09:44:01.019Z,4.96
2023-04-03T09:45:00.001Z,5.17
2023-04-03T09:46:00.000Z,5.44
2023-04-03T09:46:59.944Z,5.51
2023-04-03T09:47:59.938Z,6.16
2023-04-03T09:49:08.029Z,6.28
2023-04-03T09:50:01.907Z,5.84
2023-04-03T09:50:59.940Z,6.08
2023-04-03T09:51:59.889Z,5.55
2023-04-03T09:52:59.927Z,4.77
2023-04-03T09:54:00.001Z,4.79
2023-04-03T09:54:59.895Z,5.02
2023-04-03T09:55:59.871Z,5.30
2023-04-03T09:56:59.949Z,5.62
2023-04-03T09:57:59.866Z,5.52
2023-04-03T09:58:59.884Z,5.85
2023-04-03T09:59:59.841Z,6.03
2023-04-03T10:00:59.856Z,5.83
2023-04-03T10:01:59.962Z,5.35
2023-04-03T10:02:59.863Z,5.59
2023-04-03T10:03:59.870Z,5.81
2023-04-03T10:06:01.853Z,5.98
2023-04-03T10:06:59.826Z,6.17
2023-04-03T10:08:04.092Z,5.93
2023-04-03T10:09:00.800Z,5.67
2023-04-03T10:09:59.791Z,6.06
2023-04-03T10:10:59.823Z,6.25
2023-04-03T10:11:59.775Z,6.40
2023-04-03T10:12:59.798Z,6.58
2023-04-03T10:13:59.779Z,6.50
2023-04-03T10:14:59.828Z,6.65
2023-04-03T10:15:59.803Z,6.57
2023-04-03T10:16:59.805Z,6.81
2023-04-03T10:18:02.760Z,7.05
2023-04-03T10:19:00.869Z,6.69
2023-04-03T10:19:59.745Z,6.38
2023-04-03T10:20:59.731Z,6.16
2023-04-03T10:21:59.786Z,5.93
2023-04-03T10:22:59.728Z,6.51
2023-04-03T10:23:59.726Z,6.32
2023-04-03T10:24:59.698Z,6.63
2023-04-03T10:25:59.725Z,6.86
2023-04-03T10:26:59.723Z,7.11
2023-04-03T10:27:59.699Z,6.61
2023-04-03T10:28:59.695Z,6.63
2023-04-03T10:29:59.696Z,6.20
2023-04-03T10:30:59.921Z,6.21
2023-04-03T10:31:59.693Z,5.73
2023-04-03T10:32:59.705Z,5.35
2023-04-03T10:33:59.739Z,5.59
2023-04-03T10:35:05.040Z,5.98
2023-04-03T10:36:01.782Z,6.28
2023-04-03T10:36:59.675Z,6.14
2023-04-03T10:37:59.684Z,6.06
2023-04-03T10:38:59.630Z,5.81
2023-04-03T10:39:59.639Z,5.70
2023-04-03T10:40:59.758Z,5.63
2023-04-03T10:42:15.005Z,5.83
2023-04-03T10:43:00.608Z,5.58
2023-04-03T10:43:59.675Z,5.42
2023-04-03T10:44:59.648Z,5.55
2023-04-03T10:45:59.647Z,5.80
2023-04-03T10:46:59.604Z,6.02
2023-04-03T10:47:59.616Z,6.53
2023-04-03T10:48:59.589Z,6.68
2023-04-03T10:50:00.293Z,6.14
2023-04-03T10:51:00.594Z,6.05
2023-04-03T10:51:59.568Z,6.05
2023-04-03T10:52:59.570Z,5.92
2023-04-03T10:53:59.568Z,5.80
2023-04-03T10:54:59.539Z,6.30
2023-04-03T10:55:59.586Z,6.30
2023-04-03T10:57:11.061Z,6.35
2023-04-03T10:58:01.584Z,6.28
2023-04-03T10:58:59.518Z,6.57
2023-04-03T10:59:59.596Z,6.63
2023-04-03T11:00:59.545Z,6.42
2023-04-03T11:01:59.542Z,6.43
2023-04-03T11:02:59.608Z,6.69
2023-04-03T11:03:59.592Z,6.68
2023-04-03T11:04:59.537Z,6.79
2023-04-03T11:05:59.603Z,6.32
2023-04-03T11:06:59.490Z,6.06
2023-04-03T11:07:59.505Z,6.33
2023-04-03T11:08:59.483Z,6.51
2023-04-03T11:09:59.493Z,6.60
2023-04-03T11:10:59.532Z,6.99
2023-04-03T11:11:59.491Z,7.41
2023-04-03T11:12:59.466Z,7.08
2023-04-03T11:13:59.475Z,6.81
2023-04-03T11:14:59.464Z,6.81
2023-04-03T11:15:59.495Z,6.71
2023-04-03T11:17:00.605Z,6.75
2023-04-03T11:17:59.497Z,6.55
2023-04-03T11:18:59.440Z,6.10
2023-04-03T11:19:59.438Z,6.48
2023-04-03T11:20:59.418Z,6.46
2023-04-03T11:21:59.544Z,6.32
2023-04-03T11:22:59.417Z,6.06
2023-04-03T11:23:59.405Z,6.27
2023-04-03T11:24:59.446Z,6.53
2023-04-03T11:25:59.405Z,6.33
2023-04-03T11:26:59.555Z,6.50
2023-04-03T11:27:59.427Z,6.20
2023-04-03T11:28:59.452Z,6.25
2023-04-03T11:29:59.373Z,5.93
2023-04-03T11:30:59.517Z,5.92
2023-04-03T11:31:59.411Z,5.84
2023-04-03T11:33:00.444Z,5.80
2023-04-03T11:33:59.355Z,5.63
2023-04-03T11:34:59.351Z,5.37
2023-04-03T11:35:59.379Z,5.56
2023-04-03T11:36:59.390Z,5.83
2023-04-03T11:37:59.493Z,5.69
2023-04-03T11:38:59.322Z,5.78
2023-04-03T11:39:59.379Z,6.06
2023-04-03T11:40:59.318Z,6.35
2023-04-03T11:42:10.752Z,6.20
2023-04-03T11:43:01.315Z,6.10
2023-04-03T11:43:59.351Z,6.11
2023-04-03T11:44:59.298Z,6.60
2023-04-03T11:45:59.298Z,7.00
2023-04-03T11:46:59.322Z,6.89
2023-04-03T11:48:59.307Z,6.69
2023-04-03T11:49:59.304Z,6.72
2023-04-03T11:50:59.249Z,6.96
2023-04-03T11:51:59.251Z,6.83
2023-04-03T11:52:59.333Z,6.71
2023-04-03T11:53:59.315Z,6.82
2023-04-03T11:54:59.302Z,6.58
2023-04-03T11:55:59.282Z,6.38
2023-04-03T11:56:59.270Z,6.61
2023-04-03T11:57:59.271Z,7.05
2023-04-03T11:58:59.208Z,7.01
2023-04-03T11:59:59.231Z,6.86
2023-04-03T12:00:59.220Z,7.01
2023-04-03T12:01:59.511Z,7.19
2023-04-03T12:02:59.399Z,7.16
2023-04-03T12:03:59.330Z,6.99
2023-04-03T12:04:59.227Z,7.09
2023-04-03T12:05:59.213Z,7.42
2023-04-03T12:06:59.179Z,7.08
2023-04-03T12:07:59.177Z,6.86
2023-04-03T12:08:59.189Z,7.07
2023-04-03T12:09:59.275Z,7.24
2023-04-03T12:10:59.190Z,6.94
2023-04-03T12:11:59.220Z,6.94
2023-04-03T12:12:59.152Z,6.69
2023-04-03T12:13:59.146Z,6.99
2023-04-03T12:14:59.161Z,7.34
2023-04-03T12:15:59.147Z,7.94
2023-04-03T12:16:59.270Z,8.13
2023-04-03T12:17:59.171Z,7.74
2023-04-03T12:18:59.163Z,7.12
2023-04-03T12:19:59.119Z,7.04
2023-04-03T12:20:59.110Z,6.68
2023-04-03T12:21:59.169Z,6.38
2023-04-03T12:22:59.099Z,6.35
2023-04-03T12:23:59.137Z,6.30
2023-04-03T12:24:59.079Z,6.45
2023-04-03T12:25:59.179Z,7.00
2023-04-03T12:26:59.129Z,7.42
2023-04-03T12:27:59.098Z,7.44
2023-04-03T12:28:59.091Z,6.97
2023-04-03T12:29:59.089Z,6.65
2023-04-03T12:30:59.098Z,6.89
2023-04-03T12:31:59.088Z,6.78
2023-04-03T12:33:11.990Z,7.04
2023-04-03T12:34:01.072Z,7.15
2023-04-03T12:34:59.054Z,7.42
2023-04-03T12:36:01.270Z,7.05
2023-04-03T12:36:59.046Z,7.04
2023-04-03T12:37:59.087Z,7.29
2023-04-03T12:38:59.030Z,7.45
2023-04-03T12:39:59.025Z,7.32
2023-04-03T12:40:59.020Z,7.26
2023-04-03T12:41:59.076Z,7.14
2023-04-03T12:42:59.037Z,7.07
2023-04-03T12:43:59.068Z,7.14
2023-04-03T12:44:59.007Z,7.19
2023-04-03T12:45:59.099Z,7.08
2023-04-03T12:46:59.060Z,7.44
2023-04-03T12:47:59.064Z,7.19
2023-04-03T12:48:59.033Z,7.36
2023-04-03T12:49:59.001Z,7.29
2023-04-03T12:50:58.989Z,7.05
2023-04-03T12:51:58.977Z,7.07
2023-04-03T12:52:58.991Z,7.42
2023-04-03T12:53:59.017Z,7.99
2023-04-03T12:54:58.953Z,8.12
2023-04-03T12:55:58.964Z,8.04
2023-04-03T12:56:58.970Z,7.70
2023-04-03T12:57:59.119Z,7.67
2023-04-03T12:58:58.941Z,7.55
2023-04-03T12:59:58.951Z,7.12
2023-04-03T13:00:59.015Z,7.42
2023-04-03T13:01:59.002Z,7.66
2023-04-03T13:02:59.001Z,7.60
2023-04-03T13:03:59.066Z,7.52
2023-04-03T13:04:58.983Z,7.62
2023-04-03T13:05:58.930Z,7.45
2023-04-03T13:06:58.964Z,7.11
2023-04-03T13:07:58.901Z,7.18
2023-04-03T13:08:59.013Z,6.99
2023-04-03T13:09:58.948Z,7.07
2023-04-03T13:10:58.889Z,7.15
2023-04-03T13:11:58.898Z,7.36
2023-04-03T13:12:58.895Z,7.42
2023-04-03T13:13:59.013Z,7.19
2023-04-03T13:14:58.875Z,7.12
2023-04-03T13:15:58.936Z,6.90
2023-04-03T13:16:58.877Z,7.21
2023-04-03T13:17:58.950Z,7.67
2023-04-03T13:18:58.912Z,7.81
2023-04-03T13:19:58.940Z,7.74